Time;durP1;ratioP1;P1;durP2;ratioP2;P2;SDS_P1;SDS_P2;PMS_P1;PMS_P2;Temp;Humidity;BMP_temperature;BMP_pressure;BME280_temperature;BME280_humidity;BME280_pressure;Samples;Min_cycle;Max_cycle;Signal;HPM_P1;HPM_P2
2021/05/05 00:01:17;;;;;;;1.75;0.88;;;8.70;99.90;;;;;;5053682;28;20048;-81
2021/05/05 00:03:44;;;;;;;0.90;0.57;;;8.70;99.90;;;;;;5053650;28;20112;-81
2021/05/05 00:06:13;;;;;;;1.88;0.70;;;8.60;99.90;;;;;;5053671;28;20075;-80
2021/05/05 00:08:39;;;;;;;1.38;0.50;;;8.60;99.90;;;;;;5035714;28;20079;-81
2021/05/05 00:11:05;;;;;;;1.05;0.80;;;8.40;99.90;;;;;;5053547;28;20104;-81
2021/05/05 00:13:30;;;;;;;1.88;0.90;;;8.40;99.90;;;;;;5053506;28;20056;-81
2021/05/05 00:15:56;;;;;;;1.80;0.90;;;8.50;99.90;;;;;;5053423;28;20040;-80
2021/05/05 00:18:22;;;;;;;2.45;0.60;;;8.50;99.90;;;;;;5035590;28;20499;-80
2021/05/05 00:20:47;;;;;;;4.43;0.60;;;8.30;99.90;;;;;;5053460;28;20021;-81
2021/05/05 00:23:13;;;;;;;1.63;0.60;;;8.20;99.90;;;;;;5035749;28;20086;-80
2021/05/05 00:25:39;;;;;;;3.05;0.60;;;8.10;99.90;;;;;;5053908;28;20480;-80
2021/05/05 00:28:04;;;;;;;1.85;0.80;;;8.10;99.90;;;;;;5035470;28;20025;-80
2021/05/05 00:30:31;;;;;;;6.75;0.60;;;8.00;99.90;;;;;;5035461;28;20055;-80
2021/05/05 00:32:56;;;;;;;1.92;0.65;;;7.90;99.90;;;;;;5035453;28;20027;-80
2021/05/05 00:35:22;;;;;;;1.33;0.73;;;7.90;99.90;;;;;;5035895;28;20021;-81
2021/05/05 00:37:48;;;;;;;1.25;0.68;;;8.00;99.90;;;;;;5053145;28;20029;-80
2021/05/05 00:40:14;;;;;;;2.05;0.70;;;8.00;99.90;;;;;;5053224;28;20070;-80
2021/05/05 00:42:41;;;;;;;2.33;0.90;;;8.10;99.90;;;;;;5053210;28;20021;-80
2021/05/05 00:45:12;;;;;;;5.72;0.80;;;8.10;99.90;;;;;;5053161;28;20025;-80
2021/05/05 00:47:39;;;;;;;1.75;0.80;;;8.20;99.90;;;;;;5049957;28;20155;-79
2021/05/05 00:50:07;;;;;;;2.83;0.82;;;8.20;99.90;;;;;;5053128;28;20037;-80
2021/05/05 00:52:33;;;;;;;2.08;0.70;;;8.30;99.90;;;;;;5053052;28;20021;-80
2021/05/05 00:54:59;;;;;;;2.78;1.02;;;8.30;99.90;;;;;;5053063;28;20039;-81
2021/05/05 00:57:27;;;;;;;2.08;0.80;;;8.40;99.90;;;;;;5035149;28;20380;-80
2021/05/05 00:59:53;;;;;;;3.55;1.10;;;8.40;99.90;;;;;;5037690;28;20025;-80
2021/05/05 01:02:20;;;;;;;2.67;0.50;;;8.40;99.90;;;;;;5039187;28;20376;-80
2021/05/05 01:04:46;;;;;;;1.85;0.93;;;8.40;99.90;;;;;;5056984;28;20025;-80
2021/05/05 01:07:12;;;;;;;1.27;0.95;;;8.50;99.90;;;;;;5057478;28;20052;-81
2021/05/05 01:09:43;;;;;;;1.00;0.50;;;8.50;99.90;;;;;;5056901;28;20078;-81
2021/05/05 01:12:10;;;;;;;1.98;0.80;;;8.50;99.90;;;;;;5056918;28;20029;-81
2021/05/05 01:14:36;;;;;;;2.63;0.90;;;8.30;99.90;;;;;;5038926;28;20116;-80
2021/05/05 01:17:02;;;;;;;2.08;0.70;;;8.30;99.90;;;;;;5038852;28;20454;-81
2021/05/05 01:19:28;;;;;;;1.25;0.90;;;8.30;99.90;;;;;;5056712;28;20022;-80
2021/05/05 01:21:54;;;;;;;1.38;0.60;;;8.50;99.90;;;;;;5056980;28;20070;-81
2021/05/05 01:24:19;;;;;;;1.38;0.80;;;8.50;99.90;;;;;;5038808;28;20021;-81
2021/05/05 01:26:45;;;;;;;1.13;0.80;;;8.50;99.90;;;;;;5038793;28;20033;-80
2021/05/05 01:29:11;;;;;;;2.53;0.70;;;8.40;99.90;;;;;;5038683;28;20061;-80
2021/05/05 01:31:37;;;;;;;1.67;0.77;;;8.40;99.90;;;;;;5056570;28;20047;-80
2021/05/05 01:34:04;;;;;;;0.98;0.60;;;8.30;99.90;;;;;;5038594;28;20393;-80
2021/05/05 01:36:37;;;;;;;2.33;0.68;;;8.30;99.90;;;;;;5038495;28;20082;-80
2021/05/05 01:39:13;;;;;;;1.08;0.63;;;8.30;99.90;;;;;;5056408;28;20021;-80
2021/05/05 01:41:39;;;;;;;2.47;0.77;;;8.40;99.90;;;;;;5038511;28;20052;-80
2021/05/05 01:44:05;;;;;;;1.70;0.73;;;8.30;99.90;;;;;;5038462;28;20021;-80
2021/05/05 01:46:31;;;;;;;1.17;0.68;;;8.40;99.90;;;;;;5038134;28;20049;-80
2021/05/05 01:48:56;;;;;;;9.13;1.00;;;8.30;99.90;;;;;;5056200;28;20029;-80
2021/05/05 01:51:22;;;;;;;0.80;0.60;;;8.30;99.90;;;;;;5038295;28;20025;-80
2021/05/05 01:53:48;;;;;;;4.25;0.82;;;8.30;99.90;;;;;;5038479;28;20151;-80
2021/05/05 01:56:14;;;;;;;1.48;0.55;;;8.40;99.90;;;;;;5038163;28;20531;-80
2021/05/05 01:58:40;;;;;;;2.53;0.73;;;8.40;99.90;;;;;;5038122;28;20039;-80
2021/05/05 02:01:07;;;;;;;2.10;0.73;;;8.40;99.90;;;;;;5038088;28;20142;-80
2021/05/05 02:03:33;;;;;;;1.52;0.70;;;8.40;99.90;;;;;;5055963;28;20017;-80
2021/05/05 02:05:58;;;;;;;0.45;0.35;;;8.40;99.90;;;;;;5038026;28;20029;-80
2021/05/05 02:08:25;;;;;;;0.90;0.60;;;8.20;99.90;;;;;;5056142;28;20025;-80
2021/05/05 02:10:50;;;;;;;1.83;1.00;;;8.20;99.90;;;;;;5055069;28;20029;-80
2021/05/05 02:13:16;;;;;;;1.52;0.70;;;8.10;99.90;;;;;;5037804;28;20032;-81
2021/05/05 02:15:42;;;;;;;1.48;0.73;;;8.30;99.90;;;;;;5037786;28;20487;-80
2021/05/05 02:18:10;;;;;;;1.92;0.68;;;8.40;99.90;;;;;;5037790;28;20032;-80
2021/05/05 02:20:37;;;;;;;0.95;0.50;;;8.40;99.90;;;;;;5055898;28;20017;-81
2021/05/05 02:23:02;;;;;;;0.90;0.55;;;8.40;99.90;;;;;;5055801;28;20104;-81
2021/05/05 02:25:28;;;;;;;1.33;0.55;;;8.30;99.90;;;;;;5055794;28;20159;-80
2021/05/05 02:27:55;;;;;;;1.50;0.45;;;8.30;99.90;;;;;;5055747;28;20037;-80
2021/05/05 02:30:21;;;;;;;0.63;0.40;;;8.20;99.90;;;;;;5055687;28;20119;-80
2021/05/05 02:32:49;;;;;;;1.08;0.52;;;8.20;99.90;;;;;;5055372;28;20029;-80
2021/05/05 02:35:16;;;;;;;1.65;0.50;;;8.10;99.90;;;;;;5037506;28;20411;-80
2021/05/05 02:37:43;;;;;;;2.72;0.38;;;8.10;99.90;;;;;;5055498;28;20021;-80
2021/05/05 02:40:11;;;;;;;1.33;0.52;;;8.10;99.90;;;;;;5037405;28;20086;-80
2021/05/05 02:42:36;;;;;;;3.90;0.95;;;8.00;99.90;;;;;;5037270;28;20104;-80
2021/05/05 02:45:03;;;;;;;1.10;0.60;;;8.10;99.90;;;;;;5055136;28;20155;-80
2021/05/05 02:47:29;;;;;;;3.95;0.70;;;8.10;99.90;;;;;;5054876;28;20045;-80
2021/05/05 02:49:55;;;;;;;2.55;0.90;;;8.20;99.90;;;;;;5055070;28;20388;-80
2021/05/05 02:52:21;;;;;;;3.72;0.60;;;8.30;99.90;;;;;;5037075;28;20035;-80
2021/05/05 02:54:47;;;;;;;2.97;0.63;;;8.30;99.90;;;;;;5054952;28;20029;-80
2021/05/05 02:57:12;;;;;;;2.22;0.70;;;8.30;99.90;;;;;;5054820;28;20025;-80
2021/05/05 02:59:38;;;;;;;3.60;0.70;;;8.30;99.90;;;;;;5036970;28;20032;-80
2021/05/05 03:02:05;;;;;;;1.48;0.60;;;8.00;99.90;;;;;;5037200;28;20468;-80
2021/05/05 03:04:31;;;;;;;3.20;0.63;;;8.00;99.90;;;;;;5054841;28;20017;-80
2021/05/05 03:06:57;;;;;;;2.03;0.70;;;8.00;99.90;;;;;;5036790;28;20128;-80
2021/05/05 03:09:25;;;;;;;0.90;0.52;;;8.00;99.90;;;;;;5036800;28;20491;-80
2021/05/05 03:11:57;;;;;;;1.33;0.80;;;8.10;99.90;;;;;;5054651;28;20017;-80
2021/05/05 03:14:25;;;;;;;2.65;0.75;;;8.10;99.90;;;;;;5036781;28;20131;-80
2021/05/05 03:16:55;;;;;;;2.00;0.70;;;8.20;99.90;;;;;;5036582;28;20025;-79
2021/05/05 03:19:21;;;;;;;2.80;0.63;;;8.20;99.90;;;;;;5036673;28;20025;-80
2021/05/05 03:21:48;;;;;;;1.90;0.55;;;8.10;99.90;;;;;;5036212;28;20426;-80
2021/05/05 03:24:14;;;;;;;2.92;0.70;;;8.10;99.90;;;;;;5053751;28;20032;-80
2021/05/05 03:26:39;;;;;;;1.67;0.60;;;8.20;99.90;;;;;;5036499;28;20476;-80
2021/05/05 03:29:05;;;;;;;3.10;0.70;;;8.20;99.90;;;;;;5036424;28;20032;-79
2021/05/05 03:31:33;;;;;;;2.10;0.50;;;7.80;99.90;;;;;;5036397;28;20054;-80
2021/05/05 03:33:59;;;;;;;2.45;0.77;;;7.80;99.90;;;;;;5054214;28;20554;-80
2021/05/05 03:36:25;;;;;;;3.42;0.68;;;7.90;99.90;;;;;;5036229;28;20048;-79
2021/05/05 03:38:51;;;;;;;2.45;0.70;;;8.00;99.90;;;;;;5054108;28;20480;-79
2021/05/05 03:41:17;;;;;;;1.27;0.68;;;8.00;99.90;;;;;;5054358;28;20021;-80
2021/05/05 03:43:42;;;;;;;3.03;0.80;;;7.90;99.90;;;;;;5036204;28;20087;-79
2021/05/05 03:46:08;;;;;;;1.23;0.70;;;8.00;99.90;;;;;;5054015;28;20028;-80
2021/05/05 03:48:34;;;;;;;3.80;0.70;;;8.10;99.90;;;;;;5053994;28;20058;-79
2021/05/05 03:51:02;;;;;;;4.05;0.60;;;8.00;99.90;;;;;;5036021;28;20025;-80
2021/05/05 03:53:28;;;;;;;1.33;0.50;;;8.00;99.90;;;;;;5036012;28;20031;-79
2021/05/05 03:55:54;;;;;;;4.93;0.45;;;8.00;99.90;;;;;;5053714;28;20384;-80
2021/05/05 03:58:20;;;;;;;1.42;0.65;;;8.00;99.90;;;;;;5053770;28;20017;-80
2021/05/05 04:00:45;;;;;;;2.05;0.60;;;8.00;99.90;;;;;;5035760;28;20361;-79
2021/05/05 04:03:11;;;;;;;2.88;0.73;;;8.00;99.90;;;;;;5053751;28;20075;-80
2021/05/05 04:05:37;;;;;;;1.27;0.60;;;8.10;99.90;;;;;;5053937;28;20017;-79
2021/05/05 04:08:03;;;;;;;2.63;0.60;;;8.00;99.90;;;;;;5035734;28;20029;-80
2021/05/05 04:10:28;;;;;;;1.58;0.60;;;8.00;99.90;;;;;;5053537;28;20029;-80
2021/05/05 04:12:54;;;;;;;2.53;0.70;;;8.10;99.90;;;;;;5053825;28;20490;-80
2021/05/05 04:15:20;;;;;;;1.75;0.63;;;8.10;99.90;;;;;;5053512;28;20032;-80
2021/05/05 04:17:46;;;;;;;1.70;0.40;;;8.00;99.90;;;;;;5053429;28;20021;-80
2021/05/05 04:20:13;;;;;;;1.10;0.50;;;8.00;99.90;;;;;;5035569;28;20549;-80
2021/05/05 04:22:39;;;;;;;2.08;0.63;;;8.00;99.90;;;;;;5053375;28;20029;-79
2021/05/05 04:25:05;;;;;;;1.73;0.60;;;8.00;99.90;;;;;;5035572;28;20071;-79
2021/05/05 04:27:31;;;;;;;0.70;0.50;;;8.00;99.90;;;;;;5053346;28;20029;-80
2021/05/05 04:29:57;;;;;;;3.10;0.57;;;8.00;99.90;;;;;;5035732;28;20143;-80
2021/05/05 04:32:23;;;;;;;1.33;0.38;;;8.00;99.90;;;;;;5035457;28;20087;-80
2021/05/05 04:34:48;;;;;;;2.97;0.50;;;8.10;99.90;;;;;;5052931;28;20068;-80
2021/05/05 04:37:14;;;;;;;1.42;0.65;;;8.10;99.90;;;;;;5053184;28;20053;-80
2021/05/05 04:39:40;;;;;;;2.20;0.40;;;8.20;99.90;;;;;;5035297;28;20524;-80
2021/05/05 04:42:09;;;;;;;2.42;0.68;;;8.10;99.90;;;;;;5035384;28;20025;-80
2021/05/05 04:44:35;;;;;;;1.10;0.60;;;8.10;99.90;;;;;;5053231;28;20017;-79
2021/05/05 04:47:00;;;;;;;2.25;0.70;;;8.20;99.90;;;;;;5022201;28;20501;-80
2021/05/05 04:49:26;;;;;;;1.05;0.50;;;8.10;99.90;;;;;;5013519;28;20038;-80
2021/05/05 04:51:52;;;;;;;4.15;0.68;;;8.20;99.90;;;;;;5013456;28;20025;-80
2021/05/05 04:54:18;;;;;;;1.27;0.43;;;8.20;99.90;;;;;;5013710;28;20026;-79
2021/05/05 04:56:44;;;;;;;1.23;0.40;;;8.20;99.90;;;;;;5012128;28;20462;-79
2021/05/05 04:59:10;;;;;;;2.17;0.50;;;8.10;99.90;;;;;;5012049;28;20121;-80
2021/05/05 05:01:36;;;;;;;2.10;0.70;;;8.00;99.90;;;;;;5012044;28;20113;-80
2021/05/05 05:04:02;;;;;;;1.17;0.63;;;8.00;99.90;;;;;;5012171;28;20022;-81
2021/05/05 05:06:28;;;;;;;3.58;0.60;;;8.00;99.90;;;;;;5013353;28;20365;-80
2021/05/05 05:08:53;;;;;;;1.52;0.68;;;7.90;99.90;;;;;;5012068;28;20049;-81
2021/05/05 05:11:19;;;;;;;1.50;0.60;;;8.00;99.90;;;;;;5012039;28;20393;-80
2021/05/05 05:13:45;;;;;;;1.65;0.68;;;8.00;99.90;;;;;;5013303;28;20076;-81
2021/05/05 05:16:11;;;;;;;1.52;0.60;;;8.00;99.90;;;;;;5013245;28;20113;-80
2021/05/05 05:18:36;;;;;;;1.35;0.57;;;7.90;99.90;;;;;;5013537;28;20014;-80
2021/05/05 05:21:04;;;;;;;2.80;0.80;;;8.10;99.90;;;;;;5011915;28;20496;-80
2021/05/05 05:23:30;;;;;;;1.27;0.50;;;8.20;99.90;;;;;;5011919;28;20022;-81
2021/05/05 05:25:56;;;;;;;1.30;0.40;;;8.20;99.90;;;;;;5011868;28;20477;-80
2021/05/05 05:28:23;;;;;;;1.85;0.60;;;8.30;99.90;;;;;;5011873;28;20030;-80
2021/05/05 05:30:49;;;;;;;2.78;0.60;;;8.30;99.90;;;;;;5011865;28;20116;-81
2021/05/05 05:33:15;;;;;;;3.47;0.98;;;8.40;99.90;;;;;;5011820;28;20461;-81
2021/05/05 05:35:40;;;;;;;2.88;1.05;;;8.30;99.90;;;;;;5013051;28;20149;-81
2021/05/05 05:38:06;;;;;;;4.00;1.00;;;8.00;99.90;;;;;;5011647;28;20072;-81
2021/05/05 05:40:32;;;;;;;7.20;1.23;;;;;;;;;;5011762;28;20022;-81
2021/05/05 05:42:58;;;;;;;4.35;1.20;;;7.50;99.90;;;;;;5011684;28;20018;-80
2021/05/05 05:45:23;;;;;;;7.95;1.35;;;7.40;99.90;;;;;;5012991;28;20014;-81
2021/05/05 05:47:49;;;;;;;5.72;1.23;;;7.30;99.90;;;;;;5015006;28;20058;-80
2021/05/05 05:50:15;;;;;;;3.85;1.25;;;7.40;99.90;;;;;;5015218;28;20040;-80
2021/05/05 05:52:41;;;;;;;4.32;1.13;;;7.40;99.90;;;;;;5016449;28;20517;-81
2021/05/05 05:55:10;;;;;;;12.23;1.58;;;7.50;99.90;;;;;;5016391;28;20030;-81
2021/05/05 05:57:37;;;;;;;5.07;1.20;;;7.50;99.90;;;;;;5014958;28;20021;-81
2021/05/05 06:00:08;;;;;;;4.85;1.33;;;7.60;99.90;;;;;;5016302;28;20075;-80
2021/05/05 06:02:33;;;;;;;4.00;1.30;;;7.60;99.90;;;;;;5015005;28;20049;-81
2021/05/05 06:04:59;;;;;;;4.97;1.33;;;7.40;99.90;;;;;;5016243;28;20050;-80
2021/05/05 06:07:25;;;;;;;10.40;1.60;;;7.30;99.90;;;;;;5016485;28;20432;-81
2021/05/05 06:09:50;;;;;;;8.20;1.10;;;7.30;99.90;;;;;;5016140;28;20026;-81
2021/05/05 06:12:16;;;;;;;5.97;1.10;;;7.50;99.90;;;;;;5016352;28;20029;-81
2021/05/05 06:14:42;;;;;;;7.97;1.67;;;7.60;99.90;;;;;;5016074;28;20033;-81
2021/05/05 06:17:08;;;;;;;4.63;0.90;;;7.70;99.90;;;;;;5014681;28;20037;-81
2021/05/05 06:19:33;;;;;;;2.85;1.10;;;7.80;99.90;;;;;;5016206;28;20088;-81
2021/05/05 06:21:59;;;;;;;2.42;1.23;;;8.00;99.90;;;;;;5015969;28;20087;-81
2021/05/05 06:24:25;;;;;;;5.13;1.15;;;8.10;99.90;;;;;;5015924;28;20022;-81
2021/05/05 06:26:50;;;;;;;3.50;1.15;;;7.80;99.90;;;;;;5014535;28;20473;-80
2021/05/05 06:29:18;;;;;;;3.60;1.55;;;7.50;99.90;;;;;;5016068;28;20038;-81
2021/05/05 06:31:43;;;;;;;3.17;1.35;;;7.60;99.90;;;;;;5016309;28;20032;-81
2021/05/05 06:34:10;;;;;;;3.90;1.20;;;7.70;99.90;;;;;;5015732;28;20101;-81
2021/05/05 06:36:35;;;;;;;3.15;1.17;;;7.90;99.90;;;;;;5015646;28;20433;-81
2021/05/05 06:39:05;;;;;;;9.25;1.23;;;7.80;99.90;;;;;;5016419;28;20061;-81
2021/05/05 06:41:31;;;;;;;3.33;1.10;;;7.60;99.90;;;;;;5015319;28;20563;-81
2021/05/05 06:43:58;;;;;;;3.85;1.25;;;7.30;99.90;;;;;;5016307;28;20033;-81
2021/05/05 06:46:24;;;;;;;6.45;1.30;;;7.20;99.90;;;;;;5013994;28;20077;-81
2021/05/05 06:48:49;;;;;;;6.22;1.13;;;7.40;99.90;;;;;;5014141;28;20065;-80
2021/05/05 06:51:15;;;;;;;7.18;1.15;;;7.70;99.90;;;;;;5015401;28;20380;-81
2021/05/05 06:53:41;;;;;;;5.90;1.83;;;8.00;99.90;;;;;;5016327;28;20049;-81
2021/05/05 06:56:06;;;;;;;6.82;1.88;;;8.20;99.90;;;;;;5015216;28;20472;-81
2021/05/05 06:58:32;;;;;;;6.40;2.30;;;8.40;99.90;;;;;;5016797;28;20542;-81
2021/05/05 07:00:58;;;;;;;9.68;1.52;;;8.40;99.90;;;;;;5014289;28;20633;-81
2021/05/05 07:03:23;;;;;;;7.65;2.25;;;8.40;99.90;;;;;;5016263;28;20054;-80
2021/05/05 07:05:49;;;;;;;5.45;1.40;;;8.30;99.90;;;;;;5015589;28;20469;-80
2021/05/05 07:08:15;;;;;;;13.43;2.15;;;8.40;99.90;;;;;;5018543;28;20038;-80
2021/05/05 07:10:40;;;;;;;8.27;1.58;;;8.40;99.90;;;;;;5014189;28;20026;-81
2021/05/05 07:13:06;;;;;;;6.25;1.27;;;8.50;99.90;;;;;;5015473;28;20028;-81
2021/05/05 07:15:32;;;;;;;8.27;1.55;;;8.60;99.90;;;;;;5015082;28;20037;-80
2021/05/05 07:17:58;;;;;;;9.60;1.67;;;8.70;99.90;;;;;;5020251;28;20040;-81
2021/05/05 07:20:23;;;;;;;12.98;2.85;;;8.60;99.90;;;;;;5020354;28;20036;-82
2021/05/05 07:22:49;;;;;;;12.80;1.80;;;8.50;99.90;;;;;;5018203;28;20093;-81
2021/05/05 07:25:15;;;;;;;9.55;1.48;;;8.30;99.90;;;;;;5014127;28;20507;-81
2021/05/05 07:27:42;;;;;;;5.43;1.80;;;8.40;99.90;;;;;;5013793;28;20033;-79
2021/05/05 07:30:09;;;;;;;6.88;1.58;;;8.40;99.90;;;;;;5013326;28;20034;-79
2021/05/05 07:32:36;;;;;;;9.15;2.05;;;8.40;99.90;;;;;;5013279;28;20367;-79
2021/05/05 07:35:05;;;;;;;12.60;1.75;;;8.10;99.90;;;;;;5013268;28;20034;-78
2021/05/05 07:46:06;;;;;;;7.50;1.73;;;8.30;99.90;;;;;;5014902;28;20519;-79
2021/05/05 07:48:49;;;;;;;8.38;1.55;;;8.50;99.90;;;;;;5054228;28;20108;-79
2021/05/05 07:51:15;;;;;;;7.70;1.92;;;8.70;99.90;;;;;;5036094;28;20048;-79
2021/05/05 07:53:42;;;;;;;9.38;1.85;;;8.70;99.90;;;;;;5036074;28;20017;-79
2021/05/05 07:56:09;;;;;;;11.32;2.00;;;8.70;99.90;;;;;;5035801;28;20033;-78
2021/05/05 07:58:35;;;;;;;7.55;1.50;;;8.60;99.90;;;;;;5037115;28;20031;-79
2021/05/05 08:01:01;;;;;;;9.45;2.17;;;8.50;99.90;;;;;;5035819;28;20476;-80
2021/05/05 08:03:27;;;;;;;9.60;1.40;;;8.80;99.90;;;;;;5035840;28;20021;-79
2021/05/05 08:05:53;;;;;;;13.98;1.85;;;9.00;99.90;;;;;;5035705;28;20017;-78
2021/05/05 08:08:19;;;;;;;6.07;1.48;;;9.10;99.90;;;;;;5035217;28;20025;-78
2021/05/05 08:10:47;;;;;;;6.80;1.80;;;9.00;99.90;;;;;;5035628;28;20480;-78
2021/05/05 08:13:13;;;;;;;6.93;1.42;;;9.30;99.90;;;;;;5035671;28;20025;-78
2021/05/05 08:15:39;;;;;;;4.45;1.40;;;9.50;99.90;;;;;;5053351;28;20376;-78
2021/05/05 08:18:07;;;;;;;6.43;1.65;;;9.60;99.90;;;;;;5035582;28;20021;-79
2021/05/05 08:20:34;;;;;;;7.50;1.60;;;9.30;99.90;;;;;;5035530;28;20017;-78
2021/05/05 08:23:04;;;;;;;11.18;1.80;;;9.00;99.90;;;;;;5035727;28;20029;-78
2021/05/05 08:25:29;;;;;;;6.28;1.52;;;8.70;99.90;;;;;;5053274;28;20533;-78
2021/05/05 08:27:56;;;;;;;7.00;1.67;;;8.70;99.90;;;;;;5019035;28;20025;-78
2021/05/05 08:30:22;;;;;;;8.05;1.58;;;8.60;99.90;;;;;;5035497;28;20025;-78
2021/05/05 08:32:48;;;;;;;8.75;1.58;;;8.50;99.90;;;;;;5035332;28;20067;-78
2021/05/05 08:35:15;;;;;;;7.70;1.90;;;8.40;99.90;;;;;;5035283;28;20120;-79
2021/05/05 08:37:41;;;;;;;9.68;1.70;;;8.40;99.90;;;;;;5019034;28;20025;-78
2021/05/05 08:40:11;;;;;;;4.45;1.70;;;8.30;99.90;;;;;;5035367;28;20071;-78
2021/05/05 08:42:41;;;;;;;7.22;1.60;;;8.30;99.90;;;;;;5035491;28;20440;-78
2021/05/05 08:45:20;;;;;;;7.70;1.65;;;8.40;99.90;;;;;;5036451;28;20485;-78
2021/05/05 08:47:48;;;;;;;12.45;1.88;;;8.50;99.90;;;;;;5035017;28;20053;-78
2021/05/05 08:50:16;;;;;;;5.25;1.70;;;8.70;99.90;;;;;;5053183;28;20062;-78
2021/05/05 08:52:43;;;;;;;7.55;1.65;;;9.10;99.90;;;;;;5035227;28;20392;-78
2021/05/05 08:55:11;;;;;;;8.75;1.40;;;9.60;99.90;;;;;;5035125;28;20036;-79
2021/05/05 08:57:37;;;;;;;6.32;1.67;;;10.00;99.90;;;;;;5052952;28;20032;-79
2021/05/05 09:00:06;;;;;;;5.18;1.42;;;10.20;99.90;;;;;;5035551;28;20029;-78
2021/05/05 09:02:32;;;;;;;9.40;1.90;;;9.70;99.90;;;;;;5019262;28;20491;-79
2021/05/05 09:05:00;;;;;;;6.70;1.45;;;9.40;99.90;;;;;;5034922;28;20115;-79
2021/05/05 09:07:34;;;;;;;8.10;1.45;;;9.50;99.90;;;;;;5052617;28;20543;-79
2021/05/05 09:10:34;;;;;;;4.60;1.55;;;9.40;99.90;;;;;;5052593;28;20036;-79
2021/05/05 09:13:01;;;;;;;7.70;1.60;;;9.10;99.90;;;;;;5049776;28;20041;-78
2021/05/05 09:15:29;;;;;;;5.47;1.45;;;8.90;99.90;;;;;;5034992;28;20116;-78
2021/05/05 09:17:56;;;;;;;9.93;1.55;;;8.60;99.90;;;;;;5052720;28;20025;-79
2021/05/05 09:20:33;;;;;;;7.72;1.60;;;8.90;99.90;;;;;;5052793;28;20025;-78
2021/05/05 09:23:05;;;;;;;7.22;1.80;;;8.90;99.90;;;;;;5039122;28;20025;-78
2021/05/05 09:25:34;;;;;;;6.65;1.60;;;8.90;99.90;;;;;;5038740;28;20029;-78
2021/05/05 09:28:26;;;;;;;8.43;1.70;;;9.70;99.90;;;;;;5038910;28;20480;-78
2021/05/05 09:30:54;;;;;;;5.57;1.40;;;10.20;99.90;;;;;;5054317;28;20036;-78
2021/05/05 09:33:34;;;;;;;9.73;1.73;;;10.40;99.90;;;;;;5022107;28;20100;-78
2021/05/05 09:36:06;;;;;;;6.78;1.33;;;10.60;99.90;;;;;;5056421;28;20104;-79
2021/05/05 09:38:50;;;;;;;4.63;1.33;;;10.70;99.90;;;;;;5038575;28;20166;-78
2021/05/05 09:41:30;;;;;;;4.47;1.35;;;10.80;99.90;;;;;;5038806;28;20112;-79
2021/05/05 09:44:07;;;;;;;6.07;1.30;;;11.10;99.90;;;;;;5056424;28;20056;-78
2021/05/05 09:46:50;;;;;;;5.40;1.45;;;11.20;99.90;;;;;;5055968;28;20044;-79
2021/05/05 09:49:35;;;;;;;4.68;1.40;;;11.40;99.90;;;;;;5038234;28;20029;-79
2021/05/05 09:52:06;;;;;;;8.63;1.85;;;11.90;99.90;;;;;;5038443;28;20028;-78
2021/05/05 09:54:39;;;;;;;5.72;1.33;;;11.70;99.90;;;;;;5038420;28;20113;-79
2021/05/05 09:57:21;;;;;;;5.13;1.38;;;12.00;99.90;;;;;;5055950;28;20102;-79
2021/05/05 10:00:18;;;;;;;5.80;1.58;;;12.30;99.90;;;;;;5038438;28;20104;-79
2021/05/05 10:02:48;;;;;;;7.05;1.58;;;11.10;99.90;;;;;;5056194;28;20021;-79
2021/05/05 10:05:18;;;;;;;6.93;1.45;;;11.50;99.90;;;;;;5056262;28;20100;-79
2021/05/05 10:08:07;;;;;;;5.07;1.10;;;11.40;99.90;;;;;;5037989;28;20051;-79
2021/05/05 10:10:43;;;;;;;4.55;1.20;;;11.50;99.90;;;;;;5055442;28;20069;-79
2021/05/05 10:13:13;;;;;;;9.38;1.40;;;11.20;99.90;;;;;;5038158;28;20029;-79
2021/05/05 10:15:39;;;;;;;6.55;1.48;;;11.20;99.90;;;;;;5021661;28;20037;-78
2021/05/05 10:18:11;;;;;;;3.78;1.50;;;11.90;99.90;;;;;;5021303;28;20075;-79
2021/05/05 10:20:38;;;;;;;7.32;1.40;;;12.20;99.90;;;;;;5055655;28;20025;-79
2021/05/05 10:23:05;;;;;;;5.32;1.10;;;12.00;98.00;;;;;;5021385;28;20025;-79
2021/05/05 10:25:31;;;;;;;4.95;1.33;;;12.20;99.30;;;;;;5037962;28;20029;-79
2021/05/05 10:27:58;;;;;;;6.30;1.40;;;12.80;99.70;;;;;;5037643;28;20021;-78
2021/05/05 10:30:31;;;;;;;3.83;1.15;;;12.50;98.40;;;;;;5037509;28;20113;-80
2021/05/05 10:32:57;;;;;;;4.38;0.90;;;11.70;98.00;;;;;;5037069;28;20052;-78
2021/05/05 10:35:25;;;;;;;3.33;1.00;;;11.60;99.90;;;;;;5037595;28;20391;-79
2021/05/05 10:37:57;;;;;;;3.15;1.13;;;11.60;99.80;;;;;;5037385;28;20052;-78
2021/05/05 10:40:36;;;;;;;9.60;1.48;;;11.90;99.90;;;;;;5055505;28;20044;-79
2021/05/05 10:43:11;;;;;;;6.30;1.30;;;11.80;99.90;;;;;;5037323;28;20025;-79
2021/05/05 10:45:43;;;;;;;6.45;1.17;;;11.40;99.90;;;;;;5037578;28;20017;-80
2021/05/05 10:48:17;;;;;;;5.45;1.13;;;10.50;99.90;;;;;;5034235;28;20107;-78
2021/05/05 10:50:50;;;;;;;;;;;10.00;99.90;;;;;;5034145;28;20025;-79
2021/05/05 10:53:17;;;;;;;7.03;1.30;;;9.70;99.90;;;;;;5035149;28;20349;-79
2021/05/05 10:55:46;;;;;;;5.20;1.00;;;9.20;99.90;;;;;;5017424;28;20036;-79
2021/05/05 10:58:26;;;;;;;3.17;0.90;;;8.70;99.90;;;;;;5033787;28;20029;-80
2021/05/05 11:00:59;;;;;;;7.32;1.40;;;8.30;99.90;;;;;;5033803;28;20022;-80
2021/05/05 11:03:44;;;;;;;2.75;0.90;;;7.50;99.90;;;;;;5034488;28;20056;-79
2021/05/05 11:06:29;;;;;;;3.67;1.00;;;7.10;99.90;;;;;;5033661;28;20092;-80
2021/05/05 11:09:10;;;;;;;4.50;1.10;;;7.20;99.90;;;;;;5033684;28;20476;-80
2021/05/05 11:11:40;;;;;;;2.72;1.00;;;7.40;99.90;;;;;;5035074;28;20022;-79
2021/05/05 11:14:07;;;;;;;1.80;1.00;;;7.80;99.90;;;;;;5034844;28;20045;-79
2021/05/05 11:16:52;;;;;;;5.63;1.55;;;8.00;99.90;;;;;;5033372;28;20057;-80
2021/05/05 11:19:41;;;;;;;;;;;8.30;99.90;;;;;;5034685;28;20084;-79
2021/05/05 11:22:22;;;;;;;1.75;0.95;;;8.20;99.90;;;;;;5033373;28;19911;-79
2021/05/05 11:24:50;;;;;;;2.42;0.70;;;7.90;99.90;;;;;;5033296;28;20481;-79
2021/05/05 11:27:38;;;;;;;0.93;0.68;;;7.60;99.90;;;;;;5034446;28;20022;-80
2021/05/05 11:30:42;;;;;;;1.23;0.70;;;7.90;99.90;;;;;;5033001;28;20061;-80
2021/05/05 11:33:10;;;;;;;1.40;0.70;;;8.30;99.90;;;;;;5017225;28;20083;-79
2021/05/05 11:35:37;;;;;;;3.42;0.90;;;8.80;99.90;;;;;;5033018;28;20049;-79
2021/05/05 11:38:07;;;;;;;1.60;0.90;;;;;;;;;;5032986;28;20048;-79
2021/05/05 11:40:33;;;;;;;2.30;0.70;;;7.80;99.90;;;;;;5033090;28;20544;-79
2021/05/05 11:42:58;;;;;;;3.53;1.17;;;7.50;99.90;;;;;;5032520;28;20056;-79
2021/05/05 11:45:24;;;;;;;2.72;1.10;;;7.30;99.90;;;;;;5032730;28;20108;-80
2021/05/05 11:47:50;;;;;;;4.10;1.05;;;7.70;99.90;;;;;;5004474;28;20056;-79
2021/05/05 11:50:26;;;;;;;4.97;1.42;;;9.00;99.90;;;;;;5013330;28;20516;-79
2021/05/05 11:52:56;;;;;;;2.30;1.10;;;9.90;99.90;;;;;;5010865;28;20041;-79
2021/05/05 11:55:30;;;;;;;4.43;1.00;;;10.60;99.90;;;;;;5013326;28;20049;-79
2021/05/05 11:57:58;;;;;;;3.60;0.98;;;11.50;99.90;;;;;;5013041;28;20036;-79
2021/05/05 12:00:33;;;;;;;4.68;1.10;;;12.10;99.90;;;;;;5013287;28;20026;-79
2021/05/05 12:02:59;;;;;;;3.10;0.80;;;;;;;;;;5013127;28;20378;-80
2021/05/05 12:05:31;;;;;;;4.28;1.05;;;13.10;99.90;;;;;;5012850;28;20072;-80
2021/05/05 12:08:15;;;;;;;3.33;0.82;;;13.60;99.90;;;;;;5012949;28;20033;-79
2021/05/05 12:10:59;;;;;;;3.55;1.20;;;13.80;99.90;;;;;;5012844;28;20030;-79
2021/05/05 12:13:29;;;;;;;1.98;0.65;;;13.40;99.90;;;;;;5012885;28;20030;-79
2021/05/05 12:16:26;;;;;;;2.67;0.90;;;14.00;99.90;;;;;;5014127;28;20026;-79
2021/05/05 12:18:56;;;;;;;4.90;1.00;;;14.20;99.90;;;;;;5014016;28;20027;-79
2021/05/05 12:21:26;;;;;;;3.42;1.00;;;14.00;99.90;;;;;;5012645;28;20111;-80
2021/05/05 12:24:00;;;;;;;5.72;0.70;;;13.40;99.90;;;;;;5012660;28;20029;-78
2021/05/05 12:26:33;;;;;;;1.35;0.57;;;12.80;99.90;;;;;;5012822;28;20061;-79
2021/05/05 12:29:05;;;;;;;3.10;1.10;;;13.10;99.90;;;;;;5014120;28;20048;-78
2021/05/05 12:31:35;;;;;;;2.72;1.00;;;12.50;99.90;;;;;;4996420;28;20485;-78
2021/05/05 12:34:04;;;;;;;3.83;1.35;;;12.50;99.90;;;;;;5013712;28;20076;-79
2021/05/05 12:36:32;;;;;;;2.33;1.50;;;11.70;99.90;;;;;;5013276;28;20062;-78
2021/05/05 12:39:10;;;;;;;2.70;1.05;;;10.40;99.90;;;;;;5012448;28;20479;-80
2021/05/05 12:41:47;;;;;;;4.07;1.00;;;10.10;99.90;;;;;;5012242;28;20378;-79
2021/05/05 12:44:14;;;;;;;2.40;0.95;;;10.30;99.90;;;;;;5012268;28;20033;-79
2021/05/05 12:46:55;;;;;;;2.95;0.80;;;10.70;99.90;;;;;;5016676;28;20030;-78
2021/05/05 12:49:33;;;;;;;3.70;0.90;;;10.80;99.90;;;;;;5053029;28;20507;-79
2021/05/05 12:52:00;;;;;;;2.90;0.90;;;10.90;99.90;;;;;;5035345;28;20387;-79
2021/05/05 12:54:30;;;;;;;4.03;1.00;;;12.70;99.90;;;;;;5019223;28;20032;-79
2021/05/05 12:56:58;;;;;;;1.17;0.73;;;14.30;99.90;;;;;;5039376;28;20132;-80
2021/05/05 12:59:34;;;;;;;3.55;0.90;;;14.70;99.90;;;;;;5039677;28;20036;-80
2021/05/05 13:02:11;;;;;;;2.15;0.68;;;14.80;99.90;;;;;;5039263;28;20028;-79
2021/05/05 13:04:43;;;;;;;1.90;0.80;;;14.40;99.90;;;;;;5039642;28;20568;-80
2021/05/05 13:07:43;;;;;;;3.65;0.90;;;13.80;99.90;;;;;;5039442;28;20033;-80
2021/05/05 13:10:31;;;;;;;2.80;0.80;;;12.40;99.90;;;;;;5028779;28;20098;-78
2021/05/05 13:13:10;;;;;;;4.25;1.23;;;11.50;99.90;;;;;;5039566;28;20112;-79